Swarovski Heliport LOIS

Flugplatz Daten

Name: Swarovski Heliport

Ident: LOIS

Lat: 47,2947197

Long: 11,60016918

Platzhöhe: 1818 ft

IataCode:

City: Wattens

Metar

2015/09/01 05:00
YBMA 010500Z 33007KT CAVOK 32/M03 Q1012 RMK STATION CLOISNG REOPEN 011950Z

Taf

Gewünschte Webcam nicht vorhanden? Dann fügen Sie eine hinzu. Sie wird dann so schnell wie möglich freigeschaltet
Url: Title: